Nearby METAR Reports

 

LJLJ - Ljubljana/Brnik, Slovenia
Distance from station: W 41km
Updated: 04/10/2022 15:00
Partly cloudy
Partly cloudy
 Wind from ESE
Wind: ESE 7 km/h
Temperature: 18°C
Dew Point: 8°C
Humidity: 52%
Barometer: 1023 hPa
Clouds: Partly cloudy
Visibility: 10 km
Cloud details: Few Clouds 1311 m
Partly cloudy 7620 m
2022/10/04 13:00 LJLJ 041300Z 11004KT 060V170 9999 FEW043 SCT250 18/08 Q1023 NOSIG
LJMB - Maribor, Slovenia
Distance from station: NE 63km
Updated: 04/10/2022 15:00
Clear
Clear
 Wind from S
Wind: S 6 km/h
Temperature: 19°C
Dew Point: 5°C
Humidity: 40%
Barometer: 1023 hPa
Summary: Clear
Visibility: greater than 10 km
2022/10/04 13:00 LJMB 041300Z 17003KT 080V250 CAVOK 19/05 Q1023
 
LJPZ - Portoroz, Slovenia
Distance from station: SW 130km
Updated: 04/10/2022 15:00
Mostly cloudy
Mostly cloudy
 Wind from S
Wind: S 15 km/h
Temperature: 21°C
Dew Point: 13°C
Humidity: 60%
Barometer: 1022 hPa
Clouds: Mostly cloudy
Visibility: 10 km
Cloud details: Few Clouds 1219 m
Mostly cloudy 1524 m
2022/10/04 13:00 LJPZ 041300Z 19008KT 150V210 9999 FEW040 BKN050 21/13 Q1022
LJCE - Cerklje, Slovenia
Distance from station: ESE 49km
Updated: 04/10/2022 15:00
Partly cloudy
Partly cloudy
 Wind from varies
Wind: varies 2 km/h
Temperature: 20°C
Dew Point: 7°C
Humidity: 43%
Barometer: 1023 hPa
Clouds: Partly cloudy
Visibility: 10 km
Cloud details: Few Clouds 1463 m
Partly cloudy 1646 m
2022/10/04 13:00 LJCE 041300Z VRB01KT 9999 FEW048 SCT054 20/07 Q1023 RMK BLU
 
LDZA - Zagreb/Pleso, Croatia
Distance from station: ESE 96km
Updated: 04/10/2022 15:00
Clear
Clear
 Wind from W
Wind: W 6 km/h
Temperature: 20°C
Dew Point: 6°C
Humidity: 40%
Barometer: 1023 hPa
Summary: Clear
Visibility: greater than 10 km
2022/10/04 13:00 LDZA 041300Z 27003KT 200V350 CAVOK 20/06 Q1023 NOSIG
LDRI - Rijeka/Omisalj, Croatia
Distance from station: SSW 109km
Updated: 04/10/2022 15:00
Few Clouds
Few Clouds
 Wind from WNW
Wind: WNW 9 km/h
Temperature: 20°C
Dew Point: 9°C
Humidity: 49%
Barometer: 1022 hPa
Clouds: Few Clouds
Visibility: 10 km
Cloud details: Few Clouds 1097 m
2022/10/04 13:00 LDRI 041300Z 29005KT 240V330 9999 FEW036 20/09 Q1022
 
LDPL - Pula, Croatia
Distance from station: SSW 164km
Updated: 04/10/2022 15:00
Few Clouds
Few Clouds
 Wind from varies
Wind: varies 9 km/h
Temperature: 20°C
Dew Point: 11°C
Humidity: 56%
Barometer: 1023 hPa
Clouds: Few Clouds
Visibility: 10 km
Cloud details: Few Clouds 1067 m
2022/10/04 13:00 LDPL 041300Z VRB05KT 9999 FEW035 20/11 Q1023 NOSIG
LOWK - Klagenfurt(Civ/M, Austria
Distance from station: NW 76km
Updated: 04/10/2022 14:50
Few Clouds
Few Clouds
 Wind from E
Wind: E 7 km/h
Temperature: 17°C
Dew Point: 7°C
Humidity: 52%
Barometer: 1023 hPa
Clouds: Few Clouds
Visibility: 10 km
Cloud details: Few Clouds 1829 m
2022/10/04 12:50 LOWK 041250Z 09004KT 050V130 9999 FEW060 17/07 Q1023 NOSIG
 
LOWG - Graz (mil/Civ), Austria
Distance from station: NNE 100km
Updated: 04/10/2022 14:50
Few Clouds
Few Clouds
 Wind from varies
Wind: varies 6 km/h
Temperature: 18°C
Dew Point: 5°C
Humidity: 43%
Barometer: 1023 hPa
Clouds: Few Clouds
Visibility: 10 km
Cloud details: Few Clouds 1829 m
2022/10/04 12:50 LOWG 041250Z VRB03KT 9999 FEW060 18/05 Q1023 NOSIG
LOAN - Wr.neustadt East, Austria
Distance from station: NNE 212km
Updated: 04/10/2022 15:00
Mostly cloudy
Mostly cloudy
 Wind from WNW
Wind: WNW 22 km/h
Clouds: Mostly cloudy
Visibility: 10 km
Cloud details: Few Clouds 1067 m
Mostly cloudy 1829 m
2022/10/04 13:00 LOAN 041300Z 30012KT 9999 FEW035 BKN060
 
LIPQ - Ronchi Legionari, Italy
Distance from station: SW 35km
Updated: 04/10/2022 14:50
Overcast
Overcast
 Wind from S
Wind: S 6 km/h
Temperature: 20°C
Dew Point: 14°C
Humidity: 69%
Barometer: 1022 hPa
Clouds: Overcast
Visibility: 10 km
Cloud details: Overcast 914 m
2022/10/04 12:50 LIPQ 041250Z AUTO 18003KT 140V230 9999 OVC030/// 20/14 Q1022
LIVT - Trieste, Italy
Distance from station: WSW 109km
Updated: 04/10/2022 14:55
Partly cloudy
Partly cloudy
 Wind from varies
Wind: varies 4 km/h
Temperature: 21°C
Dew Point: 13°C
Humidity: 60%
Barometer: 1022 hPa
Clouds: Partly cloudy
Visibility: 10 km
Cloud details: Partly cloudy 1219 m
2022/10/04 12:55 LIVT 041255Z VRB02KT 9999 SCT040 21/13 Q1022
 
LIVO - Tarvisio, Italy
Distance from station: NNW 49km
Updated: 04/10/2022 14:55
Clear
Clear
 Wind from calm
Wind: Calm
Temperature: 14°C
Dew Point: 7°C
Humidity: 63%
Barometer: 1022 hPa
Summary: Clear
Visibility: greater than 10 km
2022/10/04 12:55 LIVO 041255Z 00000KT CAVOK 14/07 Q1022
LIPZ - Venezia/Tessera, Italy
Distance from station: WSW 217km
Updated: 04/10/2022 14:50
Few Clouds
Few Clouds
 Wind from SE
Wind: SE 11 km/h
Temperature: 20°C
Dew Point: 15°C
Humidity: 73%
Barometer: 1022 hPa
Clouds: Few Clouds
Visibility: 10 km
Cloud details: Few Clouds 1219 m
2022/10/04 12:50 LIPZ 041250Z 13006KT 080V150 9999 FEW040 20/15 Q1022 NOSIG
 
LHSM - Balaton, Hungary
Distance from station: ENE 177km
Updated: 04/10/2022 14:45
Clear
Clear
 Wind from NNW
Wind: NNW 13 km/h
Temperature: 17°C
Dew Point: 8°C
Humidity: 56%
Barometer: 1023 hPa
Summary: Clear
Visibility: greater than 10 km
2022/10/04 12:45 LHSM 041245Z AUTO 34007KT CAVOK 17/08 Q1023 NOSIG